Etusivu
METAR-TAF:

METAR-TAF

Lentoasemat :

Yapin kansainvälinen lentoasema

Yap, Mikronesia

Leveyspiiri: 09-29N, Pituuspiiri: 138-05E, korkeus merenpinnasta: 28 m

Tämänhetkinen sää

Tämä raportti tehtiin 1 tunti ja 6 minuuttia sitten, kello 07.52 UTC
Tuuli 7 kn kaakosta
Lämpötila 29°C
Kosteus 84%
Ilmanpaine 1009 hPa
Näkyvyys: 19.3 km
Muutamia pilviä 1700 ft:n korkeudessa
Hajonneita pilviä 30000 ft:n korkeudessa

METAR: PTYA 190752Z 14007KT 12SM FEW017 BKN300 29/26 A2979 RMK SLP088 T02930262

Aika: 18:58 (08:58 UTC)

Sääennuste

Tämä raportti tehtiin 3 tuntia ja 37 minuuttia sitten, kello 05.21 UTC
Ennuste voimassa 19. päivästä klo 06 UTC - 20. päivään klo 06 UTC
Tuuli 7 kn idästä/kaakosta
Näkyvyys: 10 km
Hajanaisia pilviä 1700 ft:n korkeudessa
Hajanaisia pilviä 3000 ft:n korkeudessa
sadekuuroja näköpiirissä

TAF: PTYA 190521Z 1906/2006 12007KT P6SM VCSH SCT017 SCT030

Säähavainnot ja -ennusteet yli 4000 lentoasemalta (METAR- ja TAF-raportit).

Käytössä olevat sääasemat on merkitty karttaan keltaisilla ja punaisilla pisteillä.

Aseta hiiri pisteen päälle nähdäksesi sääaseman nimen.

Klikkaa sitten nähdäksesi säähavainnot ja -ennusteet.

Kartan vaihtaminen: klikkaa mustalla rastilla varustettuja vihreitä pisteitä, niin voit zoomata sisään; viivalla varustettua vihreää pistettä, niin voit zoomata ulos tai vihreitä nuolia, niin pääset viereisille kartoille.


METAR-TAF: